sensor_id;sensor_type;location;lat;lon;timestamp;P1;durP1;ratioP1;P2;durP2;ratioP2
62832;SDS011;48891;49.220;6.920;2024-03-07T00:01:42;26.38;;;18.05;;
62832;SDS011;48891;49.220;6.920;2024-03-07T00:04:07;27.25;;;18.55;;
62832;SDS011;48891;49.220;6.920;2024-03-07T00:06:32;26.30;;;19.63;;
62832;SDS011;48891;49.220;6.920;2024-03-07T00:08:57;24.92;;;18.90;;
62832;SDS011;48891;49.220;6.920;2024-03-07T00:11:23;27.42;;;19.50;;
62832;SDS011;48891;49.220;6.920;2024-03-07T00:13:48;25.45;;;18.23;;
62832;SDS011;48891;49.220;6.920;2024-03-07T00:16:13;25.33;;;18.48;;
62832;SDS011;48891;49.220;6.920;2024-03-07T00:18:38;27.90;;;20.17;;
62832;SDS011;48891;49.220;6.920;2024-03-07T00:21:04;26.08;;;19.73;;
62832;SDS011;48891;49.220;6.920;2024-03-07T00:23:29;26.42;;;19.73;;
62832;SDS011;48891;49.220;6.920;2024-03-07T00:25:54;30.63;;;20.08;;
62832;SDS011;48891;49.220;6.920;2024-03-07T00:28:19;28.42;;;19.65;;
62832;SDS011;48891;49.220;6.920;2024-03-07T00:30:45;27.00;;;20.23;;
62832;SDS011;48891;49.220;6.920;2024-03-07T00:33:10;26.67;;;19.35;;
62832;SDS011;48891;49.220;6.920;2024-03-07T00:35:38;25.48;;;19.23;;
62832;SDS011;48891;49.220;6.920;2024-03-07T00:38:03;26.35;;;19.70;;
62832;SDS011;48891;49.220;6.920;2024-03-07T00:40:28;28.30;;;20.33;;
62832;SDS011;48891;49.220;6.920;2024-03-07T00:42:54;27.08;;;20.63;;
62832;SDS011;48891;49.220;6.920;2024-03-07T00:45:19;27.75;;;19.98;;
62832;SDS011;48891;49.220;6.920;2024-03-07T00:47:44;28.35;;;20.25;;
62832;SDS011;48891;49.220;6.920;2024-03-07T00:50:09;29.42;;;20.95;;
62832;SDS011;48891;49.220;6.920;2024-03-07T00:52:35;29.73;;;20.60;;
62832;SDS011;48891;49.220;6.920;2024-03-07T00:55:01;29.20;;;20.13;;
62832;SDS011;48891;49.220;6.920;2024-03-07T00:57:27;27.27;;;19.58;;
62832;SDS011;48891;49.220;6.920;2024-03-07T00:59:52;28.02;;;20.08;;
62832;SDS011;48891;49.220;6.920;2024-03-07T01:02:17;27.35;;;19.67;;
62832;SDS011;48891;49.220;6.920;2024-03-07T01:04:42;26.67;;;20.27;;
62832;SDS011;48891;49.220;6.920;2024-03-07T01:07:08;31.33;;;20.33;;
62832;SDS011;48891;49.220;6.920;2024-03-07T01:09:33;26.38;;;20.25;;
62832;SDS011;48891;49.220;6.920;2024-03-07T01:11:58;25.88;;;20.05;;
62832;SDS011;48891;49.220;6.920;2024-03-07T01:14:23;28.30;;;20.45;;
62832;SDS011;48891;49.220;6.920;2024-03-07T01:16:49;28.65;;;21.05;;
62832;SDS011;48891;49.220;6.920;2024-03-07T01:19:14;32.47;;;21.48;;
62832;SDS011;48891;49.220;6.920;2024-03-07T01:21:39;28.08;;;19.65;;
62832;SDS011;48891;49.220;6.920;2024-03-07T01:24:05;28.10;;;20.75;;
62832;SDS011;48891;49.220;6.920;2024-03-07T01:26:30;26.30;;;19.27;;
62832;SDS011;48891;49.220;6.920;2024-03-07T01:28:56;28.67;;;20.10;;
62832;SDS011;48891;49.220;6.920;2024-03-07T01:31:22;27.85;;;19.58;;
62832;SDS011;48891;49.220;6.920;2024-03-07T01:33:47;28.10;;;19.85;;
62832;SDS011;48891;49.220;6.920;2024-03-07T01:36:13;27.52;;;20.45;;
62832;SDS011;48891;49.220;6.920;2024-03-07T01:38:38;29.67;;;20.60;;
62832;SDS011;48891;49.220;6.920;2024-03-07T01:41:03;27.15;;;20.15;;
62832;SDS011;48891;49.220;6.920;2024-03-07T01:43:29;29.33;;;20.33;;
62832;SDS011;48891;49.220;6.920;2024-03-07T01:45:54;31.10;;;21.50;;
62832;SDS011;48891;49.220;6.920;2024-03-07T01:48:25;28.95;;;19.83;;
62832;SDS011;48891;49.220;6.920;2024-03-07T01:50:52;31.35;;;21.98;;
62832;SDS011;48891;49.220;6.920;2024-03-07T01:53:18;29.83;;;21.15;;
62832;SDS011;48891;49.220;6.920;2024-03-07T01:55:44;27.05;;;20.30;;
62832;SDS011;48891;49.220;6.920;2024-03-07T01:58:09;29.70;;;20.98;;
62832;SDS011;48891;49.220;6.920;2024-03-07T02:00:38;28.88;;;20.30;;
62832;SDS011;48891;49.220;6.920;2024-03-07T02:03:03;28.83;;;21.30;;
62832;SDS011;48891;49.220;6.920;2024-03-07T02:05:29;28.33;;;20.73;;
62832;SDS011;48891;49.220;6.920;2024-03-07T02:07:54;27.63;;;20.67;;
62832;SDS011;48891;49.220;6.920;2024-03-07T02:10:19;30.10;;;21.08;;
62832;SDS011;48891;49.220;6.920;2024-03-07T02:12:44;30.35;;;21.33;;
62832;SDS011;48891;49.220;6.920;2024-03-07T02:15:10;30.25;;;21.75;;
62832;SDS011;48891;49.220;6.920;2024-03-07T02:17:36;30.02;;;21.20;;
62832;SDS011;48891;49.220;6.920;2024-03-07T02:20:01;29.58;;;21.08;;
62832;SDS011;48891;49.220;6.920;2024-03-07T02:22:27;29.67;;;20.95;;
62832;SDS011;48891;49.220;6.920;2024-03-07T02:24:52;32.35;;;22.13;;
62832;SDS011;48891;49.220;6.920;2024-03-07T02:27:17;30.98;;;21.25;;
62832;SDS011;48891;49.220;6.920;2024-03-07T02:29:43;30.83;;;22.65;;
62832;SDS011;48891;49.220;6.920;2024-03-07T02:32:08;33.83;;;23.67;;
62832;SDS011;48891;49.220;6.920;2024-03-07T02:34:33;32.30;;;22.10;;
62832;SDS011;48891;49.220;6.920;2024-03-07T02:36:59;30.23;;;22.25;;
62832;SDS011;48891;49.220;6.920;2024-03-07T02:39:24;31.70;;;23.13;;
62832;SDS011;48891;49.220;6.920;2024-03-07T02:41:49;31.50;;;23.50;;
62832;SDS011;48891;49.220;6.920;2024-03-07T02:44:14;35.15;;;23.23;;
62832;SDS011;48891;49.220;6.920;2024-03-07T02:46:40;30.73;;;22.30;;
62832;SDS011;48891;49.220;6.920;2024-03-07T02:49:05;33.67;;;23.95;;
62832;SDS011;48891;49.220;6.920;2024-03-07T02:51:31;30.92;;;23.17;;
62832;SDS011;48891;49.220;6.920;2024-03-07T02:53:56;33.40;;;22.98;;
62832;SDS011;48891;49.220;6.920;2024-03-07T02:56:21;32.65;;;23.00;;
62832;SDS011;48891;49.220;6.920;2024-03-07T02:58:46;33.15;;;22.73;;
62832;SDS011;48891;49.220;6.920;2024-03-07T03:01:12;31.42;;;22.88;;
62832;SDS011;48891;49.220;6.920;2024-03-07T03:03:37;33.78;;;24.00;;
62832;SDS011;48891;49.220;6.920;2024-03-07T03:06:02;34.80;;;24.27;;
62832;SDS011;48891;49.220;6.920;2024-03-07T03:08:28;33.38;;;23.85;;
62832;SDS011;48891;49.220;6.920;2024-03-07T03:10:53;34.83;;;23.98;;
62832;SDS011;48891;49.220;6.920;2024-03-07T03:13:19;33.03;;;23.75;;
62832;SDS011;48891;49.220;6.920;2024-03-07T03:15:44;32.30;;;23.67;;
62832;SDS011;48891;49.220;6.920;2024-03-07T03:18:10;35.95;;;24.85;;
62832;SDS011;48891;49.220;6.920;2024-03-07T03:20:35;32.83;;;22.80;;
62832;SDS011;48891;49.220;6.920;2024-03-07T03:23:01;34.85;;;23.63;;
62832;SDS011;48891;49.220;6.920;2024-03-07T03:25:26;32.85;;;22.17;;
62832;SDS011;48891;49.220;6.920;2024-03-07T03:27:51;33.15;;;23.48;;
62832;SDS011;48891;49.220;6.920;2024-03-07T03:30:17;32.05;;;21.90;;
62832;SDS011;48891;49.220;6.920;2024-03-07T03:32:42;33.65;;;24.15;;
62832;SDS011;48891;49.220;6.920;2024-03-07T03:35:07;33.10;;;22.90;;
62832;SDS011;48891;49.220;6.920;2024-03-07T03:37:33;32.22;;;22.60;;
62832;SDS011;48891;49.220;6.920;2024-03-07T03:39:58;32.13;;;22.63;;
62832;SDS011;48891;49.220;6.920;2024-03-07T03:42:23;31.00;;;21.67;;
62832;SDS011;48891;49.220;6.920;2024-03-07T03:44:49;32.22;;;22.02;;
62832;SDS011;48891;49.220;6.920;2024-03-07T03:47:14;34.53;;;23.13;;
62832;SDS011;48891;49.220;6.920;2024-03-07T03:49:39;35.03;;;23.38;;
62832;SDS011;48891;49.220;6.920;2024-03-07T03:52:04;34.20;;;23.08;;
62832;SDS011;48891;49.220;6.920;2024-03-07T03:54:30;30.55;;;21.83;;
62832;SDS011;48891;49.220;6.920;2024-03-07T03:56:55;30.70;;;21.95;;
62832;SDS011;48891;49.220;6.920;2024-03-07T03:59:20;32.03;;;22.60;;
62832;SDS011;48891;49.220;6.920;2024-03-07T04:01:45;34.45;;;23.45;;
62832;SDS011;48891;49.220;6.920;2024-03-07T04:04:10;32.63;;;22.98;;
62832;SDS011;48891;49.220;6.920;2024-03-07T04:06:36;30.80;;;21.60;;
62832;SDS011;48891;49.220;6.920;2024-03-07T04:09:01;33.20;;;22.55;;
62832;SDS011;48891;49.220;6.920;2024-03-07T04:11:26;35.60;;;22.48;;
62832;SDS011;48891;49.220;6.920;2024-03-07T04:13:51;30.70;;;22.10;;
62832;SDS011;48891;49.220;6.920;2024-03-07T04:16:17;33.40;;;23.77;;
62832;SDS011;48891;49.220;6.920;2024-03-07T04:18:42;31.50;;;22.08;;
62832;SDS011;48891;49.220;6.920;2024-03-07T04:21:07;32.95;;;22.40;;
62832;SDS011;48891;49.220;6.920;2024-03-07T04:23:32;32.55;;;23.40;;
62832;SDS011;48891;49.220;6.920;2024-03-07T04:25:58;31.90;;;22.55;;
62832;SDS011;48891;49.220;6.920;2024-03-07T04:28:23;32.85;;;23.13;;
62832;SDS011;48891;49.220;6.920;2024-03-07T04:30:49;33.95;;;23.90;;
62832;SDS011;48891;49.220;6.920;2024-03-07T04:33:14;32.22;;;23.30;;
62832;SDS011;48891;49.220;6.920;2024-03-07T04:35:39;34.45;;;24.35;;
62832;SDS011;48891;49.220;6.920;2024-03-07T04:38:04;31.35;;;22.13;;
62832;SDS011;48891;49.220;6.920;2024-03-07T04:40:30;35.13;;;22.42;;
62832;SDS011;48891;49.220;6.920;2024-03-07T04:42:55;33.90;;;24.35;;
62832;SDS011;48891;49.220;6.920;2024-03-07T04:45:20;34.10;;;23.17;;
62832;SDS011;48891;49.220;6.920;2024-03-07T04:47:45;34.05;;;23.33;;
62832;SDS011;48891;49.220;6.920;2024-03-07T04:50:11;33.17;;;22.55;;
62832;SDS011;48891;49.220;6.920;2024-03-07T04:52:37;34.28;;;23.98;;
62832;SDS011;48891;49.220;6.920;2024-03-07T04:55:02;36.45;;;23.85;;
62832;SDS011;48891;49.220;6.920;2024-03-07T04:57:28;34.38;;;23.58;;
62832;SDS011;48891;49.220;6.920;2024-03-07T04:59:53;35.50;;;24.65;;
62832;SDS011;48891;49.220;6.920;2024-03-07T05:02:18;32.13;;;23.50;;
62832;SDS011;48891;49.220;6.920;2024-03-07T05:04:44;33.28;;;24.85;;
62832;SDS011;48891;49.220;6.920;2024-03-07T05:07:09;32.42;;;23.00;;
62832;SDS011;48891;49.220;6.920;2024-03-07T05:09:34;31.73;;;23.10;;
62832;SDS011;48891;49.220;6.920;2024-03-07T05:11:59;35.30;;;23.35;;
62832;SDS011;48891;49.220;6.920;2024-03-07T05:14:25;36.92;;;25.23;;
62832;SDS011;48891;49.220;6.920;2024-03-07T05:16:50;34.40;;;25.27;;
62832;SDS011;48891;49.220;6.920;2024-03-07T05:19:15;36.05;;;25.00;;
62832;SDS011;48891;49.220;6.920;2024-03-07T05:21:40;36.67;;;24.13;;
62832;SDS011;48891;49.220;6.920;2024-03-07T05:24:06;36.08;;;25.17;;
62832;SDS011;48891;49.220;6.920;2024-03-07T05:26:32;32.45;;;22.75;;
62832;SDS011;48891;49.220;6.920;2024-03-07T05:28:57;36.63;;;23.98;;
62832;SDS011;48891;49.220;6.920;2024-03-07T05:31:22;35.08;;;24.27;;
62832;SDS011;48891;49.220;6.920;2024-03-07T05:33:48;35.10;;;24.10;;
62832;SDS011;48891;49.220;6.920;2024-03-07T05:36:13;35.22;;;24.33;;
62832;SDS011;48891;49.220;6.920;2024-03-07T05:38:38;38.63;;;25.15;;
62832;SDS011;48891;49.220;6.920;2024-03-07T05:41:04;33.35;;;24.08;;
62832;SDS011;48891;49.220;6.920;2024-03-07T05:43:29;37.85;;;25.58;;
62832;SDS011;48891;49.220;6.920;2024-03-07T05:45:54;33.58;;;24.13;;
62832;SDS011;48891;49.220;6.920;2024-03-07T05:48:19;34.83;;;24.27;;
62832;SDS011;48891;49.220;6.920;2024-03-07T05:50:44;34.05;;;23.60;;
62832;SDS011;48891;49.220;6.920;2024-03-07T05:53:10;34.00;;;23.35;;
62832;SDS011;48891;49.220;6.920;2024-03-07T05:55:35;33.20;;;22.90;;
62832;SDS011;48891;49.220;6.920;2024-03-07T05:58:00;30.88;;;22.27;;
62832;SDS011;48891;49.220;6.920;2024-03-07T06:00:25;36.53;;;23.13;;
62832;SDS011;48891;49.220;6.920;2024-03-07T06:02:51;34.47;;;24.08;;
62832;SDS011;48891;49.220;6.920;2024-03-07T06:05:16;34.05;;;23.58;;
62832;SDS011;48891;49.220;6.920;2024-03-07T06:07:41;35.80;;;24.77;;
62832;SDS011;48891;49.220;6.920;2024-03-07T06:10:06;32.05;;;22.83;;
62832;SDS011;48891;49.220;6.920;2024-03-07T06:12:32;33.17;;;23.50;;
62832;SDS011;48891;49.220;6.920;2024-03-07T06:14:57;35.95;;;23.92;;
62832;SDS011;48891;49.220;6.920;2024-03-07T06:17:22;33.75;;;23.55;;
62832;SDS011;48891;49.220;6.920;2024-03-07T06:19:48;33.97;;;24.10;;
62832;SDS011;48891;49.220;6.920;2024-03-07T06:22:13;35.63;;;24.08;;
62832;SDS011;48891;49.220;6.920;2024-03-07T06:24:38;34.97;;;23.73;;
62832;SDS011;48891;49.220;6.920;2024-03-07T06:27:03;31.15;;;21.52;;
62832;SDS011;48891;49.220;6.920;2024-03-07T06:29:29;35.95;;;24.60;;
62832;SDS011;48891;49.220;6.920;2024-03-07T06:31:54;34.92;;;23.75;;
62832;SDS011;48891;49.220;6.920;2024-03-07T06:34:20;33.55;;;23.40;;
62832;SDS011;48891;49.220;6.920;2024-03-07T06:36:45;35.03;;;23.38;;
62832;SDS011;48891;49.220;6.920;2024-03-07T06:39:10;36.58;;;24.73;;
62832;SDS011;48891;49.220;6.920;2024-03-07T06:41:36;33.38;;;22.52;;
62832;SDS011;48891;49.220;6.920;2024-03-07T06:44:02;34.22;;;24.50;;
62832;SDS011;48891;49.220;6.920;2024-03-07T06:46:27;34.85;;;24.20;;
62832;SDS011;48891;49.220;6.920;2024-03-07T06:48:53;34.22;;;23.95;;
62832;SDS011;48891;49.220;6.920;2024-03-07T06:51:18;38.00;;;24.60;;
62832;SDS011;48891;49.220;6.920;2024-03-07T06:53:44;34.70;;;24.13;;
62832;SDS011;48891;49.220;6.920;2024-03-07T06:56:09;36.13;;;24.02;;
62832;SDS011;48891;49.220;6.920;2024-03-07T06:58:34;33.03;;;22.80;;
62832;SDS011;48891;49.220;6.920;2024-03-07T07:01:00;35.45;;;23.85;;
62832;SDS011;48891;49.220;6.920;2024-03-07T07:03:25;33.70;;;23.63;;
62832;SDS011;48891;49.220;6.920;2024-03-07T07:05:50;36.33;;;24.70;;
62832;SDS011;48891;49.220;6.920;2024-03-07T07:08:16;36.30;;;24.90;;
62832;SDS011;48891;49.220;6.920;2024-03-07T07:10:41;35.00;;;24.23;;
62832;SDS011;48891;49.220;6.920;2024-03-07T07:13:07;36.35;;;24.40;;
62832;SDS011;48891;49.220;6.920;2024-03-07T07:15:36;33.70;;;24.30;;
62832;SDS011;48891;49.220;6.920;2024-03-07T07:18:01;33.50;;;23.70;;
62832;SDS011;48891;49.220;6.920;2024-03-07T07:20:27;34.63;;;24.52;;
62832;SDS011;48891;49.220;6.920;2024-03-07T07:22:52;34.78;;;24.33;;
62832;SDS011;48891;49.220;6.920;2024-03-07T07:25:17;37.38;;;25.20;;
62832;SDS011;48891;49.220;6.920;2024-03-07T07:27:46;34.35;;;24.48;;
62832;SDS011;48891;49.220;6.920;2024-03-07T07:30:13;37.10;;;25.75;;
62832;SDS011;48891;49.220;6.920;2024-03-07T07:32:40;33.27;;;22.83;;
62832;SDS011;48891;49.220;6.920;2024-03-07T07:35:06;37.17;;;23.60;;
62832;SDS011;48891;49.220;6.920;2024-03-07T07:37:32;35.92;;;24.20;;
62832;SDS011;48891;49.220;6.920;2024-03-07T07:39:57;37.65;;;24.65;;
62832;SDS011;48891;49.220;6.920;2024-03-07T07:42:22;35.75;;;23.85;;
62832;SDS011;48891;49.220;6.920;2024-03-07T07:44:47;37.25;;;23.88;;
62832;SDS011;48891;49.220;6.920;2024-03-07T07:47:13;35.25;;;23.80;;
62832;SDS011;48891;49.220;6.920;2024-03-07T07:49:38;36.60;;;24.27;;
62832;SDS011;48891;49.220;6.920;2024-03-07T07:52:04;39.47;;;25.10;;
62832;SDS011;48891;49.220;6.920;2024-03-07T07:54:30;38.28;;;24.73;;
62832;SDS011;48891;49.220;6.920;2024-03-07T07:56:55;34.83;;;23.92;;
62832;SDS011;48891;49.220;6.920;2024-03-07T07:59:20;35.85;;;24.15;;
62832;SDS011;48891;49.220;6.920;2024-03-07T08:01:45;35.67;;;24.60;;
62832;SDS011;48891;49.220;6.920;2024-03-07T08:04:11;32.65;;;23.08;;
62832;SDS011;48891;49.220;6.920;2024-03-07T08:06:36;34.75;;;23.95;;
62832;SDS011;48891;49.220;6.920;2024-03-07T08:09:01;33.65;;;23.48;;
62832;SDS011;48891;49.220;6.920;2024-03-07T08:11:26;32.25;;;22.75;;
62832;SDS011;48891;49.220;6.920;2024-03-07T08:13:52;35.72;;;24.13;;
62832;SDS011;48891;49.220;6.920;2024-03-07T08:16:17;36.50;;;23.88;;
62832;SDS011;48891;49.220;6.920;2024-03-07T08:18:42;36.90;;;24.08;;
62832;SDS011;48891;49.220;6.920;2024-03-07T08:21:07;32.85;;;23.45;;
62832;SDS011;48891;49.220;6.920;2024-03-07T08:23:33;34.35;;;24.08;;
62832;SDS011;48891;49.220;6.920;2024-03-07T08:25:58;34.13;;;23.65;;
62832;SDS011;48891;49.220;6.920;2024-03-07T08:28:23;34.65;;;23.58;;
62832;SDS011;48891;49.220;6.920;2024-03-07T08:30:48;32.40;;;23.35;;
62832;SDS011;48891;49.220;6.920;2024-03-07T08:33:14;31.42;;;22.52;;
62832;SDS011;48891;49.220;6.920;2024-03-07T08:35:39;36.83;;;23.52;;
62832;SDS011;48891;49.220;6.920;2024-03-07T08:38:04;36.28;;;23.67;;
62832;SDS011;48891;49.220;6.920;2024-03-07T08:40:30;34.40;;;23.30;;
62832;SDS011;48891;49.220;6.920;2024-03-07T08:42:55;34.47;;;23.20;;
62832;SDS011;48891;49.220;6.920;2024-03-07T08:45:21;33.42;;;23.17;;
62832;SDS011;48891;49.220;6.920;2024-03-07T08:47:48;35.13;;;23.45;;
62832;SDS011;48891;49.220;6.920;2024-03-07T08:50:20;33.95;;;23.38;;
62832;SDS011;48891;49.220;6.920;2024-03-07T08:52:46;34.45;;;23.77;;
62832;SDS011;48891;49.220;6.920;2024-03-07T08:55:13;33.78;;;23.48;;
62832;SDS011;48891;49.220;6.920;2024-03-07T08:57:40;34.58;;;23.38;;
62832;SDS011;48891;49.220;6.920;2024-03-07T09:00:06;35.33;;;22.48;;
62832;SDS011;48891;49.220;6.920;2024-03-07T09:02:32;34.53;;;22.50;;
62832;SDS011;48891;49.220;6.920;2024-03-07T09:04:57;32.67;;;23.77;;
62832;SDS011;48891;49.220;6.920;2024-03-07T09:07:23;33.05;;;22.88;;
62832;SDS011;48891;49.220;6.920;2024-03-07T09:09:48;34.80;;;23.42;;
62832;SDS011;48891;49.220;6.920;2024-03-07T09:12:13;34.42;;;22.52;;
62832;SDS011;48891;49.220;6.920;2024-03-07T09:14:39;33.28;;;22.83;;
62832;SDS011;48891;49.220;6.920;2024-03-07T09:17:04;31.42;;;21.95;;
62832;SDS011;48891;49.220;6.920;2024-03-07T09:19:29;33.55;;;22.85;;
62832;SDS011;48891;49.220;6.920;2024-03-07T09:21:55;35.20;;;23.40;;
62832;SDS011;48891;49.220;6.920;2024-03-07T09:24:20;31.55;;;21.77;;
62832;SDS011;48891;49.220;6.920;2024-03-07T09:26:46;34.25;;;22.40;;
62832;SDS011;48891;49.220;6.920;2024-03-07T09:29:11;32.75;;;22.95;;
62832;SDS011;48891;49.220;6.920;2024-03-07T09:31:36;35.15;;;22.30;;
62832;SDS011;48891;49.220;6.920;2024-03-07T09:34:01;30.90;;;22.05;;
62832;SDS011;48891;49.220;6.920;2024-03-07T09:36:27;35.47;;;23.40;;
62832;SDS011;48891;49.220;6.920;2024-03-07T09:38:52;31.30;;;21.70;;
62832;SDS011;48891;49.220;6.920;2024-03-07T09:41:17;33.75;;;22.25;;
62832;SDS011;48891;49.220;6.920;2024-03-07T09:43:48;30.15;;;21.60;;
62832;SDS011;48891;49.220;6.920;2024-03-07T09:46:16;32.78;;;22.45;;
62832;SDS011;48891;49.220;6.920;2024-03-07T09:48:43;32.20;;;22.02;;
62832;SDS011;48891;49.220;6.920;2024-03-07T09:51:08;33.25;;;21.48;;
62832;SDS011;48891;49.220;6.920;2024-03-07T09:53:36;30.63;;;21.85;;
62832;SDS011;48891;49.220;6.920;2024-03-07T09:56:02;30.10;;;21.02;;
62832;SDS011;48891;49.220;6.920;2024-03-07T09:58:29;30.90;;;21.30;;
62832;SDS011;48891;49.220;6.920;2024-03-07T10:00:57;32.80;;;21.58;;
62832;SDS011;48891;49.220;6.920;2024-03-07T10:03:23;29.70;;;21.05;;
62832;SDS011;48891;49.220;6.920;2024-03-07T10:05:55;29.80;;;20.55;;
62832;SDS011;48891;49.220;6.920;2024-03-07T10:08:21;29.48;;;21.02;;
62832;SDS011;48891;49.220;6.920;2024-03-07T10:10:47;31.77;;;21.27;;
62832;SDS011;48891;49.220;6.920;2024-03-07T10:13:13;30.38;;;21.60;;
62832;SDS011;48891;49.220;6.920;2024-03-07T10:15:38;29.27;;;20.83;;
62832;SDS011;48891;49.220;6.920;2024-03-07T10:18:06;29.90;;;20.40;;
62832;SDS011;48891;49.220;6.920;2024-03-07T10:20:32;29.40;;;20.70;;
62832;SDS011;48891;49.220;6.920;2024-03-07T10:22:57;26.95;;;19.50;;
62832;SDS011;48891;49.220;6.920;2024-03-07T10:25:22;28.55;;;20.30;;
62832;SDS011;48891;49.220;6.920;2024-03-07T10:27:48;27.85;;;19.83;;
62832;SDS011;48891;49.220;6.920;2024-03-07T10:30:13;30.02;;;21.58;;
62832;SDS011;48891;49.220;6.920;2024-03-07T10:32:41;27.73;;;20.13;;
62832;SDS011;48891;49.220;6.920;2024-03-07T10:35:06;27.38;;;19.63;;
62832;SDS011;48891;49.220;6.920;2024-03-07T10:37:34;28.58;;;19.67;;
62832;SDS011;48891;49.220;6.920;2024-03-07T10:40:00;27.70;;;20.00;;
62832;SDS011;48891;49.220;6.920;2024-03-07T10:42:25;29.50;;;20.45;;
62832;SDS011;48891;49.220;6.920;2024-03-07T10:44:53;30.05;;;21.33;;
62832;SDS011;48891;49.220;6.920;2024-03-07T10:47:27;27.80;;;19.20;;
62832;SDS011;48891;49.220;6.920;2024-03-07T10:55:48;27.45;;;19.80;;
62832;SDS011;48891;49.220;6.920;2024-03-07T11:01:01;29.75;;;20.05;;
62832;SDS011;48891;49.220;6.920;2024-03-07T11:03:27;27.27;;;20.05;;
62832;SDS011;48891;49.220;6.920;2024-03-07T11:05:53;27.45;;;20.33;;
62832;SDS011;48891;49.220;6.920;2024-03-07T11:08:19;26.92;;;18.77;;
62832;SDS011;48891;49.220;6.920;2024-03-07T11:10:45;26.88;;;19.20;;
62832;SDS011;48891;49.220;6.920;2024-03-07T11:13:11;27.13;;;19.45;;
62832;SDS011;48891;49.220;6.920;2024-03-07T11:15:42;27.17;;;19.87;;
62832;SDS011;48891;49.220;6.920;2024-03-07T11:18:09;26.55;;;19.27;;
62832;SDS011;48891;49.220;6.920;2024-03-07T11:20:35;27.40;;;19.95;;
62832;SDS011;48891;49.220;6.920;2024-03-07T11:23:23;25.73;;;19.08;;
62832;SDS011;48891;49.220;6.920;2024-03-07T11:25:51;27.73;;;19.70;;
62832;SDS011;48891;49.220;6.920;2024-03-07T11:28:18;27.48;;;18.77;;
62832;SDS011;48891;49.220;6.920;2024-03-07T11:30:44;27.02;;;18.85;;
62832;SDS011;48891;49.220;6.920;2024-03-07T11:33:09;29.08;;;20.05;;
62832;SDS011;48891;49.220;6.920;2024-03-07T11:35:36;26.95;;;19.48;;
62832;SDS011;48891;49.220;6.920;2024-03-07T11:38:01;28.77;;;19.23;;
62832;SDS011;48891;49.220;6.920;2024-03-07T11:42:55;25.75;;;18.63;;
62832;SDS011;48891;49.220;6.920;2024-03-07T11:45:20;27.10;;;18.95;;
62832;SDS011;48891;49.220;6.920;2024-03-07T11:47:46;28.40;;;19.15;;
62832;SDS011;48891;49.220;6.920;2024-03-07T11:50:11;27.10;;;19.60;;
62832;SDS011;48891;49.220;6.920;2024-03-07T11:52:37;27.10;;;19.38;;
62832;SDS011;48891;49.220;6.920;2024-03-07T11:57:30;26.23;;;18.20;;
62832;SDS011;48891;49.220;6.920;2024-03-07T11:59:55;26.75;;;18.50;;
62832;SDS011;48891;49.220;6.920;2024-03-07T12:02:21;26.38;;;18.15;;
62832;SDS011;48891;49.220;6.920;2024-03-07T12:04:47;22.83;;;17.58;;
62832;SDS011;48891;49.220;6.920;2024-03-07T12:07:13;26.92;;;18.38;;
62832;SDS011;48891;49.220;6.920;2024-03-07T12:09:38;22.95;;;17.67;;
62832;SDS011;48891;49.220;6.920;2024-03-07T12:12:07;25.77;;;18.40;;
62832;SDS011;48891;49.220;6.920;2024-03-07T12:14:33;27.05;;;19.00;;
62832;SDS011;48891;49.220;6.920;2024-03-07T12:16:58;24.60;;;17.45;;
62832;SDS011;48891;49.220;6.920;2024-03-07T12:19:23;26.92;;;18.60;;
62832;SDS011;48891;49.220;6.920;2024-03-07T12:21:49;23.83;;;18.20;;
62832;SDS011;48891;49.220;6.920;2024-03-07T12:24:14;25.70;;;18.55;;
62832;SDS011;48891;49.220;6.920;2024-03-07T12:26:40;24.67;;;17.73;;
62832;SDS011;48891;49.220;6.920;2024-03-07T12:29:09;24.73;;;18.35;;
62832;SDS011;48891;49.220;6.920;2024-03-07T12:31:35;25.02;;;17.85;;
62832;SDS011;48891;49.220;6.920;2024-03-07T12:34:01;25.50;;;17.75;;
62832;SDS011;48891;49.220;6.920;2024-03-07T12:36:28;25.33;;;17.15;;
62832;SDS011;48891;49.220;6.920;2024-03-07T12:38:53;25.15;;;17.58;;
62832;SDS011;48891;49.220;6.920;2024-03-07T12:41:19;24.08;;;17.35;;
62832;SDS011;48891;49.220;6.920;2024-03-07T12:46:13;22.48;;;17.23;;
62832;SDS011;48891;49.220;6.920;2024-03-07T12:48:38;24.23;;;16.73;;
62832;SDS011;48891;49.220;6.920;2024-03-07T12:51:04;25.70;;;18.55;;
62832;SDS011;48891;49.220;6.920;2024-03-07T12:53:29;22.63;;;16.65;;
62832;SDS011;48891;49.220;6.920;2024-03-07T12:55:55;21.52;;;16.50;;
62832;SDS011;48891;49.220;6.920;2024-03-07T12:58:20;22.88;;;16.65;;
62832;SDS011;48891;49.220;6.920;2024-03-07T13:00:46;22.60;;;16.60;;
62832;SDS011;48891;49.220;6.920;2024-03-07T13:03:11;23.63;;;16.58;;
62832;SDS011;48891;49.220;6.920;2024-03-07T13:05:37;25.17;;;16.92;;
62832;SDS011;48891;49.220;6.920;2024-03-07T13:08:02;22.23;;;15.52;;
62832;SDS011;48891;49.220;6.920;2024-03-07T13:10:28;23.02;;;17.15;;
62832;SDS011;48891;49.220;6.920;2024-03-07T13:12:53;22.60;;;16.42;;
62832;SDS011;48891;49.220;6.920;2024-03-07T13:15:18;20.33;;;15.65;;
62832;SDS011;48891;49.220;6.920;2024-03-07T13:17:44;21.98;;;16.15;;
62832;SDS011;48891;49.220;6.920;2024-03-07T13:20:09;21.33;;;16.20;;
62832;SDS011;48891;49.220;6.920;2024-03-07T13:22:36;22.40;;;15.70;;
62832;SDS011;48891;49.220;6.920;2024-03-07T13:25:01;22.33;;;16.38;;
62832;SDS011;48891;49.220;6.920;2024-03-07T13:27:27;24.65;;;16.10;;
62832;SDS011;48891;49.220;6.920;2024-03-07T13:29:52;22.60;;;16.83;;
62832;SDS011;48891;49.220;6.920;2024-03-07T13:32:17;21.27;;;15.50;;
62832;SDS011;48891;49.220;6.920;2024-03-07T13:34:42;22.13;;;15.90;;
62832;SDS011;48891;49.220;6.920;2024-03-07T13:37:08;21.65;;;15.98;;
62832;SDS011;48891;49.220;6.920;2024-03-07T13:39:33;19.95;;;14.70;;
62832;SDS011;48891;49.220;6.920;2024-03-07T13:41:58;19.98;;;15.27;;
62832;SDS011;48891;49.220;6.920;2024-03-07T13:44:23;23.60;;;17.20;;
62832;SDS011;48891;49.220;6.920;2024-03-07T13:46:49;23.23;;;16.67;;
62832;SDS011;48891;49.220;6.920;2024-03-07T13:49:14;20.10;;;15.18;;
62832;SDS011;48891;49.220;6.920;2024-03-07T13:51:40;21.90;;;15.85;;
62832;SDS011;48891;49.220;6.920;2024-03-07T13:54:05;20.67;;;15.25;;
62832;SDS011;48891;49.220;6.920;2024-03-07T13:59:14;20.95;;;14.73;;
62832;SDS011;48891;49.220;6.920;2024-03-07T14:01:55;21.27;;;15.15;;
62832;SDS011;48891;49.220;6.920;2024-03-07T14:04:54;20.50;;;14.95;;
62832;SDS011;48891;49.220;6.920;2024-03-07T14:18:57;19.30;;;14.48;;
62832;SDS011;48891;49.220;6.920;2024-03-07T14:30:44;16.07;;;13.63;;
62832;SDS011;48891;49.220;6.920;2024-03-07T14:33:16;19.23;;;14.43;;
62832;SDS011;48891;49.220;6.920;2024-03-07T14:36:00;18.50;;;14.80;;
62832;SDS011;48891;49.220;6.920;2024-03-07T14:41:16;17.20;;;14.32;;
62832;SDS011;48891;49.220;6.920;2024-03-07T14:43:43;18.97;;;14.37;;
62832;SDS011;48891;49.220;6.920;2024-03-07T14:46:09;17.65;;;13.95;;
62832;SDS011;48891;49.220;6.920;2024-03-07T14:48:36;20.02;;;15.57;;
62832;SDS011;48891;49.220;6.920;2024-03-07T14:51:02;18.70;;;14.52;;
62832;SDS011;48891;49.220;6.920;2024-03-07T14:53:28;19.95;;;14.30;;
62832;SDS011;48891;49.220;6.920;2024-03-07T14:55:53;18.15;;;13.77;;